Alexander von Humboldt II — DDKK2 — position and weather

sailwx.info

Track history (hours):
 
Tides and Currents Weather Stations Pressure Air Temp Water Temp Dewpoint Dewpoint Depression Visibility Wind Speed Wind Dir Waves Ship Positions

Alexander von Humboldt II

Ship's website: https://www.alex-2.de/en/

Last reported at 2017-Oct-22 19:00 UTC. Time now 2017-Oct-22 19:19 UTC.
Position N 49°34' W 000°54'.

Length 65 m; draft 4.6 m.

Type: Sailing vessel. MMSI: 218768000.

Date/timePositionNaut miles runAvg speedWind from/ knotsBaromVisibWave heightAir tempDewpointWater temp
2017-Oct-22 19:00N 49°34' W 000°54'1 1.4
2017-Oct-22 18:31N 49°34' W 000°55'1 3.0
2017-Oct-22 18:01N 49°32' W 000°55'1 2.2
2017-Oct-22 17:30N 49°31' W 000°55'1 2.4
2017-Oct-22 17:01N 49°30' W 000°55'1 2.5
2017-Oct-22 16:30N 49°29' W 000°55'1 2.6
2017-Oct-22 15:59N 49°28' W 000°54'1 3.1
2017-Oct-22 15:31N 49°26' W 000°54'3 5.0
2017-Oct-22 15:01N 49°27' W 000°57'2 4.3
2017-Oct-22 14:30N 49°28' W 001°00'0 0.6
2017-Oct-22 14:00N 49°28' W 001°00'2 3.1
2017-Oct-22 13:30N 49°27' W 000°58'1 2.8
2017-Oct-22 13:00N 49°27' W 000°56'1 1.6
2017-Oct-22 12:30N 49°27' W 000°55'0 0.3
2017-Oct-22 12:00N 49°27' W 000°55'1 1.9
2017-Oct-22 11:30N 49°26' W 000°55'0 0.5
2017-Oct-22 11:00N 49°25' W 000°55'0 0.0
2017-Oct-22 10:30N 49°25' W 000°55'0 0.0
2017-Oct-22 10:00N 49°25' W 000°55'0 0.0
2017-Oct-22 09:30N 49°25' W 000°55'0 0.0
2017-Oct-22 09:00N 49°25' W 000°55'0 0.0
2017-Oct-22 07:54N 49°25' W 000°55'0 0.0
2017-Oct-22 07:27N 49°25' W 000°55'0 0.0
2017-Oct-22 07:00N 49°25' W 000°55'0 0.1
2017-Oct-22 06:24N 49°25' W 000°55'0 0.0
2017-Oct-22 06:00N 49°26' W 000°55'0 0.0
2017-Oct-21 22:08N 49°26' W 000°56'0 0.0
2017-Oct-21 21:38N 49°26' W 000°56'0 0.0
2017-Oct-21 21:20N 49°26' W 000°56'0 0.0
2017-Oct-21 20:56N 49°26' W 000°55'0 0.0
2017-Oct-21 20:20N 49°26' W 000°56'0 0.0
2017-Oct-21 19:59N 49°26' W 000°56'0 0.0
2017-Oct-21 08:26N 49°25' W 000°56'0 0.4
2017-Oct-21 08:00N 49°25' W 000°56'2 3.8
2017-Oct-21 07:30N 49°25' W 000°53'2 3.9
2017-Oct-21 07:00N 49°25' W 000°50'1 1.9
2017-Oct-21 06:30N 49°25' W 000°48'1 2.5
2017-Oct-21 06:01N 49°25' W 000°47'2 3.5
2017-Oct-21 05:31N 49°25' W 000°44'2 4.0
2017-Oct-21 05:01N 49°25' W 000°41'2 3.7
2017-Oct-21 04:30N 49°25' W 000°38'3 5.9
2017-Oct-21 04:00N 49°25' W 000°42'3 5.6
2017-Oct-21 03:27N 49°25' W 000°47'1 2.5
2017-Oct-21 03:00N 49°26' W 000°47'3 5.0
2017-Oct-21 02:31N 49°26' W 000°43'3 5.4
2017-Oct-21 02:01N 49°26' W 000°39'1 1.7
2017-Oct-21 01:30N 49°26' W 000°41'2 4.9
2017-Oct-21 01:01N 49°26' W 000°44'2 3.7
2017-Oct-21 00:30N 49°26' W 000°42'2 4.0
2017-Oct-21 00:00N 49°27' W 000°39'2 4.8
2017-Oct-20 23:31N 49°28' W 000°35'0 0.5
2017-Oct-20 23:01N 49°28' W 000°35'4 7.2
2017-Oct-20 22:30N 49°26' W 000°40'2 4.0
2017-Oct-20 22:00N 49°27' W 000°37'2 4.3
2017-Oct-20 21:31N 49°28' W 000°34'2 4.5
2017-Oct-20 21:00N 49°29' W 000°31'2 4.4
2017-Oct-20 20:31N 49°30' W 000°28'2 4.2
2017-Oct-20 20:01N 49°31' W 000°26'2 4.3
2017-Oct-20 19:31N 49°33' W 000°23'2 4.7
2017-Oct-20 19:01N 49°34' W 000°21'3 5.7
2017-Oct-20 18:31N 49°37' W 000°19'3 6.6
2017-Oct-20 18:01N 49°40' W 000°16'4 7.0
2017-Oct-20 17:31N 49°42' W 000°12'4 7.0
2017-Oct-20 17:01N 49°45' W 000°09'4 7.0
2017-Oct-20 16:31N 49°47' W 000°05'4 7.1
2017-Oct-20 16:01N 49°50' W 000°01'3 6.5
2017-Oct-20 15:31N 49°52' E 000°03'3 6.4
2017-Oct-20 15:01N 49°54' E 000°07'6 5.9
2017-Oct-20 14:00N 49°57' E 000°14'3 5.3
2017-Oct-20 13:31N 49°59' E 000°17'10 1.4
2017-Oct-20 06:06N 50°09' E 000°17'0 1.4
2017-Oct-20 06:00N 50°09' E 000°17'1 1.2
2017-Oct-20 05:30N 50°10' E 000°16'1 0.9
2017-Oct-20 04:54N 50°10' E 000°16'1 1.0
2017-Oct-20 04:22N 50°11' E 000°16'2 1.9
2017-Oct-20 03:19N 50°10' E 000°19'0 0.7
2017-Oct-20 03:00N 50°10' E 000°19'21 2.0
2017-Oct-19 16:31N 50°28' E 000°36'1 7.7
2017-Oct-19 16:26N 50°29' E 000°36'3 6.7
2017-Oct-19 15:59N 50°32' E 000°35'3 5.9
2017-Oct-19 15:31N 50°34' E 000°35'3 6.9
2017-Oct-19 15:01N 50°38' E 000°37'4 7.1
2017-Oct-19 14:30N 50°41' E 000°40'3 6.5
2017-Oct-19 14:01N 50°43' E 000°43'3 6.8
2017-Oct-19 13:31N 50°45' E 000°48'4 7.3
2017-Oct-19 13:01N 50°47' E 000°53'4 7.4
2017-Oct-19 12:31N 50°49' E 000°58'3 6.9
2017-Oct-19 12:00N 50°51' E 001°02'3 6.1
2017-Oct-19 11:29N 50°53' E 001°06'4 6.1
2017-Oct-19 10:54N 50°55' E 001°10'3 6.2
2017-Oct-19 10:28N 50°57' E 001°13'3 6.6
2017-Oct-19 10:00N 50°59' E 001°17'4 7.4
2017-Oct-19 09:31N 51°01' E 001°22'4 8.8
2017-Oct-19 09:00N 51°04' E 001°27'510.4
2017-Oct-19 08:31N 51°07' E 001°34'611.7
2017-Oct-19 08:01N 51°11' E 001°40'611.5
2017-Oct-19 07:31N 51°16' E 001°46'611.3
2017-Oct-19 07:01N 51°21' E 001°51'510.5
2017-Oct-19 06:31N 51°25' E 001°55'510.0
2017-Oct-19 06:01N 51°29' E 002°00'5 9.3
2017-Oct-19 05:31N 51°33' E 002°05'4 8.8
2017-Oct-19 05:01N 51°36' E 002°10'4 8.5
2017-Oct-19 04:30N 51°39' E 002°14'4 8.2
2017-Oct-19 04:00N 51°42' E 002°18'3 6.4
2017-Oct-19 03:31N 51°45' E 002°22'4 7.0
2017-Oct-19 02:56N 51°48' E 002°25'5 6.6
2017-Oct-19 02:06N 51°53' E 002°30'1 6.9
2017-Oct-19 02:00N 51°53' E 002°31'38 7.4
2017-Oct-18 20:54N 52°04' E 003°29'4 9.5
2017-Oct-18 20:28N 52°04' E 003°36'4 8.7
2017-Oct-18 20:01N 52°05' E 003°43'5 9.6
2017-Oct-18 19:31N 52°06' E 003°50'5 9.4
2017-Oct-18 19:01N 52°06' E 003°58'4 8.7
2017-Oct-18 18:31N 52°07' E 004°05'4 8.6
2017-Oct-18 18:01N 52°08' E 004°12'3 5.9
2017-Oct-18 17:31N 52°06' E 004°16'0 0.2
2017-Oct-18 16:57N 52°06' E 004°16'0 0.0
2017-Oct-18 16:30N 52°06' E 004°16'0 0.0
2017-Oct-18 15:54N 52°06' E 004°16'0 0.0
2017-Oct-18 15:27N 52°06' E 004°16'0 0.0
2017-Oct-18 15:00N 52°06' E 004°16'0 0.0
2017-Oct-18 14:00N 52°06' E 004°16'0 0.0
2017-Oct-18 13:30N 52°06' E 004°16'0 0.0
2017-Oct-18 13:00N 52°06' E 004°16'0 0.7
2017-Oct-18 12:31N 52°06' E 004°15'2 4.5
2017-Oct-18 12:01N 52°08' E 004°15'1 1.1
2017-Oct-18 11:31N 52°08' E 004°14'3 5.2
2017-Oct-18 11:01N 52°10' E 004°12'4 7.3
2017-Oct-18 10:31N 52°14' E 004°10'4 7.6
2017-Oct-18 10:01N 52°18' E 004°08'4 7.5
2017-Oct-18 09:31N 52°21' E 004°06'4 7.7
2017-Oct-18 09:01N 52°25' E 004°05'5 9.4
2017-Oct-18 08:30N 52°30' E 004°06'510.1
2017-Oct-18 08:00N 52°35' E 004°05'510.3
2017-Oct-18 07:30N 52°39' E 004°02'510.3
2017-Oct-18 07:00N 52°44' E 003°60'510.3
2017-Oct-18 06:30N 52°50' E 003°58'5 9.9
2017-Oct-18 06:00N 52°55' E 003°59'5 9.3
2017-Oct-18 05:28N 52°58' E 004°04'4 9.3
2017-Oct-18 05:00N 53°01' E 004°10'5 9.0
2017-Oct-18 04:29N 53°04' E 004°16'5 8.1
2017-Oct-18 03:50N 53°09' E 004°19'6 8.0
2017-Oct-18 03:09N 53°13' E 004°25'26 7.2
2017-Oct-17 23:30N 53°33' E 004°54'58 2.8
2017-Oct-17 02:42N 53°52' E 006°27'2 4.2
2017-Oct-17 02:19N 53°52' E 006°29'40 5.1
2017-Oct-16 18:24N 54°01' E 007°36'2 5.0
2017-Oct-16 17:57N 54°00' E 007°40'11 5.1
2017-Oct-16 15:52N 53°52' E 007°52'2 6.0
2017-Oct-16 15:28N 53°52' E 007°56'3 6.4
2017-Oct-16 15:00N 53°51' E 008°01'4 7.2
2017-Oct-16 14:30N 53°50' E 008°06'8 7.9
2017-Oct-16 13:30N 53°44' E 008°15'4 8.6
2017-Oct-16 13:00N 53°41' E 008°21'4 8.7
2017-Oct-16 12:30N 53°38' E 008°27'4 8.3
2017-Oct-16 12:00N 53°35' E 008°31'2 4.3
2017-Oct-16 11:31N 53°33' E 008°34'0 0.2
2017-Oct-16 11:00N 53°34' E 008°34'1 1.7
2017-Oct-16 10:28N 53°33' E 008°34'0 0.0
2017-Oct-16 09:58N 53°33' E 008°34'0 0.0
2017-Oct-16 09:25N 53°33' E 008°34'0 0.0
2017-Oct-16 08:58N 53°33' E 008°34'0 0.0
2017-Oct-16 08:28N 53°33' E 008°34'0 0.0
2017-Oct-16 07:58N 53°33' E 008°34'0 0.0
2017-Oct-16 07:28N 53°33' E 008°34'0 0.0
2017-Oct-16 06:58N 53°33' E 008°34'0 0.0
2017-Oct-16 06:28N 53°33' E 008°34'0 0.0
2017-Oct-16 05:58N 53°33' E 008°34'0 0.0
2017-Oct-16 05:28N 53°33' E 008°34'0 0.0
2017-Oct-16 04:58N 53°33' E 008°34'0 0.0
2017-Oct-16 04:28N 53°33' E 008°34'0 0.0
2017-Oct-16 03:58N 53°33' E 008°34'0 0.0
2017-Oct-16 03:25N 53°33' E 008°34'0 0.0
2017-Oct-16 02:58N 53°33' E 008°34'0 0.0
2017-Oct-16 02:28N 53°33' E 008°34'0 0.0
2017-Oct-16 01:58N 53°33' E 008°34'0 0.0
2017-Oct-16 01:28N 53°33' E 008°34'0 0.0
2017-Oct-16 00:58N 53°33' E 008°34'0 0.0
2017-Oct-16 00:28N 53°33' E 008°34'0 0.0
2017-Oct-15 23:58N 53°33' E 008°34'0 0.0
2017-Oct-15 23:28N 53°33' E 008°34'0 0.0
2017-Oct-15 22:58N 53°33' E 008°34'0 0.0
2017-Oct-15 22:28N 53°33' E 008°34'0 0.0
2017-Oct-15 21:58N 53°33' E 008°34'0 0.0
2017-Oct-15 21:28N 53°33' E 008°34'0 0.0
2017-Oct-15 20:58N 53°33' E 008°34'0 0.0
2017-Oct-15 20:28N 53°33' E 008°34'0 0.0
2017-Oct-15 19:58N 53°33' E 008°34'0 0.0
2017-Oct-15 19:25N 53°33' E 008°34'0 0.0
2017-Oct-15 18:58N 53°33' E 008°34'0 0.0
2017-Oct-15 18:28N 53°33' E 008°34'0 0.0
2017-Oct-15 17:58N 53°33' E 008°34'0 0.0
2017-Oct-15 17:28N 53°33' E 008°34'0 0.0
2017-Oct-15 16:58N 53°33' E 008°34'0 0.0
2017-Oct-15 16:28N 53°33' E 008°34'0 0.0
2017-Oct-15 15:58N 53°33' E 008°34'0 0.1
2017-Oct-15 15:30N 53°33' E 008°34'1 1.4
2017-Oct-15 15:00N 53°33' E 008°34'0 0.1
2017-Oct-15 14:00N 53°33' E 008°34'1 1.7
2017-Oct-15 13:30N 53°33' E 008°34'0 0.0
2017-Oct-15 13:00N 53°33' E 008°34'2 3.7
2017-Oct-15 12:30N 53°34' E 008°32'2 4.9
2017-Oct-15 12:01N 53°36' E 008°30'3 6.9
2017-Oct-15 11:30N 53°38' E 008°26'3 6.5
2017-Oct-15 11:00N 53°41' E 008°22'3 6.2
2017-Oct-15 10:30N 53°43' E 008°18'1 2.4
2017-Oct-15 10:00N 53°44' E 008°16'3 6.0
2017-Oct-15 09:30N 53°42' E 008°20'3 6.3
2017-Oct-15 09:00N 53°39' E 008°24'4 7.8
2017-Oct-15 08:30N 53°37' E 008°29'4 7.1
2017-Oct-15 08:00N 53°34' E 008°32'2 3.2
2017-Oct-15 07:30N 53°33' E 008°34'0 0.3
2017-Oct-15 06:59N 53°33' E 008°34'0 0.0
2017-Oct-15 06:29N 53°33' E 008°34'0 0.0
2017-Oct-15 05:59N 53°33' E 008°34'0 0.0
2017-Oct-15 05:29N 53°33' E 008°34'0 0.0
2017-Oct-15 04:59N 53°33' E 008°34'0 0.0
2017-Oct-15 04:29N 53°33' E 008°34'0 0.0
2017-Oct-15 03:59N 53°33' E 008°34'0 0.0
2017-Oct-15 03:29N 53°33' E 008°34'0 0.0
2017-Oct-15 02:59N 53°33' E 008°34'0 0.0
2017-Oct-15 02:29N 53°33' E 008°34'0 0.0
2017-Oct-15 01:59N 53°33' E 008°34'0 0.0
2017-Oct-15 01:29N 53°33' E 008°34'0 0.0
2017-Oct-15 00:59N 53°33' E 008°34'0 0.0
2017-Oct-15 00:29N 53°33' E 008°34'0 0.0
2017-Oct-14 23:59N 53°33' E 008°34'0 0.0
2017-Oct-14 23:29N 53°33' E 008°34'0 0.0
2017-Oct-14 22:59N 53°33' E 008°34'0 0.0
2017-Oct-14 22:29N 53°33' E 008°34'0 0.0
2017-Oct-14 21:59N 53°33' E 008°34'0 0.0
2017-Oct-14 21:29N 53°33' E 008°34'0 0.0
2017-Oct-14 20:59N 53°33' E 008°34'0 0.0
2017-Oct-14 20:29N 53°33' E 008°34'0 0.0
2017-Oct-14 19:59N 53°33' E 008°34'0 0.0
2017-Oct-14 19:29N 53°33' E 008°34'0 0.0
2017-Oct-14 18:59N 53°33' E 008°34'0 0.0
2017-Oct-14 18:29N 53°33' E 008°34'0 0.0
2017-Oct-14 17:59N 53°33' E 008°34'0 0.0
2017-Oct-14 17:29N 53°33' E 008°34'0 0.0
2017-Oct-14 16:59N 53°33' E 008°34'0 0.1
2017-Oct-14 16:29N 53°33' E 008°34'0 0.0
2017-Oct-14 16:00N 53°33' E 008°34'2 3.4
2017-Oct-14 15:30N 53°34' E 008°32'3 7.0
2017-Oct-14 15:00N 53°37' E 008°29'4 7.7
2017-Oct-14 14:30N 53°39' E 008°24'4 7.8
2017-Oct-14 14:00N 53°42' E 008°19'3 6.3
2017-Oct-14 13:30N 53°44' E 008°15'3 5.1
2017-Oct-14 13:00N 53°46' E 008°12'3 5.9
2017-Oct-14 12:30N 53°44' E 008°16'3 6.7
2017-Oct-14 12:00N 53°42' E 008°20'4 7.2
2017-Oct-14 11:30N 53°39' E 008°24'3 5.9
2017-Oct-14 11:00N 53°37' E 008°28'4 7.7
2017-Oct-14 10:30N 53°34' E 008°32'2 3.5
2017-Oct-14 09:57N 53°33' E 008°34'0 0.0
2017-Oct-14 09:30N 53°33' E 008°34'0 0.0
2017-Oct-14 09:00N 53°33' E 008°34'0 0.0
2017-Oct-14 08:31N 53°33' E 008°34'1 1.0
2017-Oct-14 08:01N 53°33' E 008°34'0 1.0
2017-Oct-14 07:30N 53°34' E 008°34'0 0.9
2017-Oct-14 07:00N 53°33' E 008°34'0 0.8
2017-Oct-14 06:29N 53°33' E 008°34'0 0.0
2017-Oct-14 05:59N 53°33' E 008°34'0 0.0
2017-Oct-14 05:29N 53°33' E 008°34'0 0.0
2017-Oct-14 04:59N 53°33' E 008°34'0 0.0
2017-Oct-14 04:29N 53°33' E 008°34'0 0.0
2017-Oct-14 03:59N 53°33' E 008°34'0 0.0
2017-Oct-14 03:29N 53°33' E 008°34'0 0.0
2017-Oct-14 02:59N 53°33' E 008°34'0 0.0
2017-Oct-14 02:29N 53°33' E 008°34'0 0.0
2017-Oct-14 01:59N 53°33' E 008°34'0 0.0
2017-Oct-14 01:29N 53°33' E 008°34'0 0.0
2017-Oct-14 00:59N 53°33' E 008°34'0 0.0
2017-Oct-14 00:29N 53°33' E 008°34'0 0.0
2017-Oct-13 23:59N 53°33' E 008°34'0 0.0
2017-Oct-13 23:29N 53°33' E 008°34'0 0.0
2017-Oct-13 22:59N 53°33' E 008°34'0 0.0
2017-Oct-13 22:29N 53°33' E 008°34'0 0.0
2017-Oct-13 21:59N 53°33' E 008°34'0 0.0
2017-Oct-13 21:29N 53°33' E 008°34'0 0.0
2017-Oct-13 20:59N 53°33' E 008°34'0 0.0
2017-Oct-13 20:29N 53°33' E 008°34'0 0.0
2017-Oct-13 19:59N 53°33' E 008°34'0 0.0
2017-Oct-13 19:29N 53°33' E 008°34'0 0.0
2017-Oct-13 18:59N 53°33' E 008°34'0 0.0
2017-Oct-13 18:29N 53°33' E 008°34'0 0.0
2017-Oct-13 17:59N 53°33' E 008°34'0 0.0
2017-Oct-13 17:29N 53°33' E 008°34'0 0.0
2017-Oct-13 16:59N 53°33' E 008°34'0 0.0
2017-Oct-13 16:29N 53°33' E 008°34'0 0.0
2017-Oct-13 15:59N 53°33' E 008°34'0 0.0
2017-Oct-13 15:29N 53°33' E 008°34'0 0.0
2017-Oct-13 14:59N 53°33' E 008°34'0 0.0
2017-Oct-13 14:29N 53°33' E 008°34'0 0.0
2017-Oct-13 13:59N 53°33' E 008°34'0 0.0
2017-Oct-13 13:29N 53°33' E 008°34'0 0.0
2017-Oct-13 12:59N 53°33' E 008°34'0 0.0
2017-Oct-13 12:29N 53°33' E 008°34'0 0.0
2017-Oct-13 11:59N 53°33' E 008°34'0 0.0
2017-Oct-13 11:29N 53°33' E 008°34'0 0.0
2017-Oct-13 10:59N 53°33' E 008°34'0 0.0
2017-Oct-13 10:29N 53°33' E 008°34'0 0.0
2017-Oct-13 09:59N 53°33' E 008°34'0 0.0
2017-Oct-13 09:29N 53°33' E 008°34'0 0.0
2017-Oct-13 08:59N 53°33' E 008°34'0 0.0
2017-Oct-13 08:29N 53°33' E 008°34'0 0.0
2017-Oct-13 07:59N 53°33' E 008°34'0 0.0
2017-Oct-13 07:29N 53°33' E 008°34'0 0.0
2017-Oct-13 06:59N 53°33' E 008°34'0 0.0
2017-Oct-13 06:29N 53°33' E 008°34'0 0.0
2017-Oct-13 05:59N 53°33' E 008°34'0 0.0
2017-Oct-13 05:29N 53°33' E 008°34'0 0.0
2017-Oct-13 04:56N 53°33' E 008°34'0 0.0
2017-Oct-13 04:26N 53°33' E 008°34'0 0.0
2017-Oct-13 03:59N 53°33' E 008°34'0 0.0
2017-Oct-13 03:29N 53°33' E 008°34'0 0.0
2017-Oct-13 02:59N 53°33' E 008°34'0 0.0
2017-Oct-13 02:29N 53°33' E 008°34'0 0.0
2017-Oct-13 01:59N 53°33' E 008°34'0 0.0
2017-Oct-13 01:29N 53°33' E 008°34'0 0.0
2017-Oct-13 00:59N 53°33' E 008°34'0 0.0
2017-Oct-13 00:29N 53°33' E 008°34'0 0.0
2017-Oct-12 23:59N 53°33' E 008°34'0 0.0
2017-Oct-12 23:29N 53°33' E 008°34'0 0.0
2017-Oct-12 22:59N 53°33' E 008°34'0 0.0
2017-Oct-12 22:29N 53°33' E 008°34'0 0.0
2017-Oct-12 21:59N 53°33' E 008°34'0 0.0
2017-Oct-12 21:29N 53°33' E 008°34'0 0.0
2017-Oct-12 20:59N 53°33' E 008°34'0 0.0
2017-Oct-12 20:29N 53°33' E 008°34'0 0.0
2017-Oct-12 19:59N 53°33' E 008°34'0 0.0
2017-Oct-12 19:29N 53°33' E 008°34'  
Track history (hours):
 
Tides and Currents Weather Stations Pressure Air Temp Water Temp Dewpoint Dewpoint Depression Visibility Wind Speed Wind Dir Waves Ship Positions

Alexander von Humboldt II

Ship's website: https://www.alex-2.de/en/

Last reported at 2017-Oct-22 19:00 UTC. Time now 2017-Oct-22 19:19 UTC.
Position N 49°34' W 000°54'.

Length 65 m; draft 4.6 m.

Type: Sailing vessel. MMSI: 218768000.

Date/timePositionNaut miles runAvg speedWind from/ knotsBaromVisibWave heightAir tempDewpointWater temp
2017-Oct-22 19:00N 49°34' W 000°54'1 1.4
2017-Oct-22 18:31N 49°34' W 000°55'1 3.0
2017-Oct-22 18:01N 49°32' W 000°55'1 2.2
2017-Oct-22 17:30N 49°31' W 000°55'1 2.4
2017-Oct-22 17:01N 49°30' W 000°55'1 2.5
2017-Oct-22 16:30N 49°29' W 000°55'1 2.6
2017-Oct-22 15:59N 49°28' W 000°54'1 3.1
2017-Oct-22 15:31N 49°26' W 000°54'3 5.0
2017-Oct-22 15:01N 49°27' W 000°57'2 4.3
2017-Oct-22 14:30N 49°28' W 001°00'0 0.6
2017-Oct-22 14:00N 49°28' W 001°00'2 3.1
2017-Oct-22 13:30N 49°27' W 000°58'1 2.8
2017-Oct-22 13:00N 49°27' W 000°56'1 1.6
2017-Oct-22 12:30N 49°27' W 000°55'0 0.3
2017-Oct-22 12:00N 49°27' W 000°55'1 1.9
2017-Oct-22 11:30N 49°26' W 000°55'0 0.5
2017-Oct-22 11:00N 49°25' W 000°55'0 0.0
2017-Oct-22 10:30N 49°25' W 000°55'0 0.0
2017-Oct-22 10:00N 49°25' W 000°55'0 0.0
2017-Oct-22 09:30N 49°25' W 000°55'0 0.0
2017-Oct-22 09:00N 49°25' W 000°55'0 0.0
2017-Oct-22 07:54N 49°25' W 000°55'0 0.0
2017-Oct-22 07:27N 49°25' W 000°55'0 0.0
2017-Oct-22 07:00N 49°25' W 000°55'0 0.1
2017-Oct-22 06:24N 49°25' W 000°55'0 0.0
2017-Oct-22 06:00N 49°26' W 000°55'0 0.0
2017-Oct-21 22:08N 49°26' W 000°56'0 0.0
2017-Oct-21 21:38N 49°26' W 000°56'0 0.0
2017-Oct-21 21:20N 49°26' W 000°56'0 0.0
2017-Oct-21 20:56N 49°26' W 000°55'0 0.0
2017-Oct-21 20:20N 49°26' W 000°56'0 0.0
2017-Oct-21 19:59N 49°26' W 000°56'0 0.0
2017-Oct-21 08:26N 49°25' W 000°56'0 0.4
2017-Oct-21 08:00N 49°25' W 000°56'2 3.8
2017-Oct-21 07:30N 49°25' W 000°53'2 3.9
2017-Oct-21 07:00N 49°25' W 000°50'1 1.9
2017-Oct-21 06:30N 49°25' W 000°48'1 2.5
2017-Oct-21 06:01N 49°25' W 000°47'2 3.5
2017-Oct-21 05:31N 49°25' W 000°44'2 4.0
2017-Oct-21 05:01N 49°25' W 000°41'2 3.7
2017-Oct-21 04:30N 49°25' W 000°38'3 5.9
2017-Oct-21 04:00N 49°25' W 000°42'3 5.6
2017-Oct-21 03:27N 49°25' W 000°47'1 2.5
2017-Oct-21 03:00N 49°26' W 000°47'3 5.0
2017-Oct-21 02:31N 49°26' W 000°43'3 5.4
2017-Oct-21 02:01N 49°26' W 000°39'1 1.7
2017-Oct-21 01:30N 49°26' W 000°41'2 4.9
2017-Oct-21 01:01N 49°26' W 000°44'2 3.7
2017-Oct-21 00:30N 49°26' W 000°42'2 4.0
2017-Oct-21 00:00N 49°27' W 000°39'2 4.8
2017-Oct-20 23:31N 49°28' W 000°35'0 0.5
2017-Oct-20 23:01N 49°28' W 000°35'4 7.2
2017-Oct-20 22:30N 49°26' W 000°40'2 4.0
2017-Oct-20 22:00N 49°27' W 000°37'2 4.3
2017-Oct-20 21:31N 49°28' W 000°34'2 4.5
2017-Oct-20 21:00N 49°29' W 000°31'2 4.4
2017-Oct-20 20:31N 49°30' W 000°28'2 4.2
2017-Oct-20 20:01N 49°31' W 000°26'2 4.3
2017-Oct-20 19:31N 49°33' W 000°23'2 4.7
2017-Oct-20 19:01N 49°34' W 000°21'3 5.7
2017-Oct-20 18:31N 49°37' W 000°19'3 6.6
2017-Oct-20 18:01N 49°40' W 000°16'4 7.0
2017-Oct-20 17:31N 49°42' W 000°12'4 7.0
2017-Oct-20 17:01N 49°45' W 000°09'4 7.0
2017-Oct-20 16:31N 49°47' W 000°05'4 7.1
2017-Oct-20 16:01N 49°50' W 000°01'3 6.5
2017-Oct-20 15:31N 49°52' E 000°03'3 6.4
2017-Oct-20 15:01N 49°54' E 000°07'6 5.9
2017-Oct-20 14:00N 49°57' E 000°14'3 5.3
2017-Oct-20 13:31N 49°59' E 000°17'10 1.4
2017-Oct-20 06:06N 50°09' E 000°17'0 1.4
2017-Oct-20 06:00N 50°09' E 000°17'1 1.2
2017-Oct-20 05:30N 50°10' E 000°16'1 0.9
2017-Oct-20 04:54N 50°10' E 000°16'1 1.0
2017-Oct-20 04:22N 50°11' E 000°16'2 1.9
2017-Oct-20 03:19N 50°10' E 000°19'0 0.7
2017-Oct-20 03:00N 50°10' E 000°19'21 2.0
2017-Oct-19 16:31N 50°28' E 000°36'1 7.7
2017-Oct-19 16:26N 50°29' E 000°36'3 6.7
2017-Oct-19 15:59N 50°32' E 000°35'3 5.9
2017-Oct-19 15:31N 50°34' E 000°35'3 6.9
2017-Oct-19 15:01N 50°38' E 000°37'4 7.1
2017-Oct-19 14:30N 50°41' E 000°40'3 6.5
2017-Oct-19 14:01N 50°43' E 000°43'3 6.8
2017-Oct-19 13:31N 50°45' E 000°48'4 7.3
2017-Oct-19 13:01N 50°47' E 000°53'4 7.4
2017-Oct-19 12:31N 50°49' E 000°58'3 6.9
2017-Oct-19 12:00N 50°51' E 001°02'3 6.1
2017-Oct-19 11:29N 50°53' E 001°06'4 6.1
2017-Oct-19 10:54N 50°55' E 001°10'3 6.2
2017-Oct-19 10:28N 50°57' E 001°13'3 6.6
2017-Oct-19 10:00N 50°59' E 001°17'4 7.4
2017-Oct-19 09:31N 51°01' E 001°22'4 8.8
2017-Oct-19 09:00N 51°04' E 001°27'510.4
2017-Oct-19 08:31N 51°07' E 001°34'611.7
2017-Oct-19 08:01N 51°11' E 001°40'611.5
2017-Oct-19 07:31N 51°16' E 001°46'611.3
2017-Oct-19 07:01N 51°21' E 001°51'510.5
2017-Oct-19 06:31N 51°25' E 001°55'510.0
2017-Oct-19 06:01N 51°29' E 002°00'5 9.3
2017-Oct-19 05:31N 51°33' E 002°05'4 8.8
2017-Oct-19 05:01N 51°36' E 002°10'4 8.5
2017-Oct-19 04:30N 51°39' E 002°14'4 8.2
2017-Oct-19 04:00N 51°42' E 002°18'3 6.4
2017-Oct-19 03:31N 51°45' E 002°22'4 7.0
2017-Oct-19 02:56N 51°48' E 002°25'5 6.6
2017-Oct-19 02:06N 51°53' E 002°30'1 6.9
2017-Oct-19 02:00N 51°53' E 002°31'38 7.4
2017-Oct-18 20:54N 52°04' E 003°29'4 9.5
2017-Oct-18 20:28N 52°04' E 003°36'4 8.7
2017-Oct-18 20:01N 52°05' E 003°43'5 9.6
2017-Oct-18 19:31N 52°06' E 003°50'5 9.4
2017-Oct-18 19:01N 52°06' E 003°58'4 8.7
2017-Oct-18 18:31N 52°07' E 004°05'4 8.6
2017-Oct-18 18:01N 52°08' E 004°12'3 5.9
2017-Oct-18 17:31N 52°06' E 004°16'0 0.2
2017-Oct-18 16:57N 52°06' E 004°16'0 0.0
2017-Oct-18 16:30N 52°06' E 004°16'0 0.0
2017-Oct-18 15:54N 52°06' E 004°16'0 0.0
2017-Oct-18 15:27N 52°06' E 004°16'0 0.0
2017-Oct-18 15:00N 52°06' E 004°16'0 0.0
2017-Oct-18 14:00N 52°06' E 004°16'0 0.0
2017-Oct-18 13:30N 52°06' E 004°16'0 0.0
2017-Oct-18 13:00N 52°06' E 004°16'0 0.7
2017-Oct-18 12:31N 52°06' E 004°15'2 4.5
2017-Oct-18 12:01N 52°08' E 004°15'1 1.1
2017-Oct-18 11:31N 52°08' E 004°14'3 5.2
2017-Oct-18 11:01N 52°10' E 004°12'4 7.3
2017-Oct-18 10:31N 52°14' E 004°10'4 7.6
2017-Oct-18 10:01N 52°18' E 004°08'4 7.5
2017-Oct-18 09:31N 52°21' E 004°06'4 7.7
2017-Oct-18 09:01N 52°25' E 004°05'5 9.4
2017-Oct-18 08:30N 52°30' E 004°06'510.1
2017-Oct-18 08:00N 52°35' E 004°05'510.3
2017-Oct-18 07:30N 52°39' E 004°02'510.3
2017-Oct-18 07:00N 52°44' E 003°60'510.3
2017-Oct-18 06:30N 52°50' E 003°58'5 9.9
2017-Oct-18 06:00N 52°55' E 003°59'5 9.3
2017-Oct-18 05:28N 52°58' E 004°04'4 9.3
2017-Oct-18 05:00N 53°01' E 004°10'5 9.0
2017-Oct-18 04:29N 53°04' E 004°16'5 8.1
2017-Oct-18 03:50N 53°09' E 004°19'6 8.0
2017-Oct-18 03:09N 53°13' E 004°25'26 7.2
2017-Oct-17 23:30N 53°33' E 004°54'58 2.8
2017-Oct-17 02:42N 53°52' E 006°27'2 4.2
2017-Oct-17 02:19N 53°52' E 006°29'40 5.1
2017-Oct-16 18:24N 54°01' E 007°36'2 5.0
2017-Oct-16 17:57N 54°00' E 007°40'11 5.1
2017-Oct-16 15:52N 53°52' E 007°52'2 6.0
2017-Oct-16 15:28N 53°52' E 007°56'3 6.4
2017-Oct-16 15:00N 53°51' E 008°01'4 7.2
2017-Oct-16 14:30N 53°50' E 008°06'8 7.9
2017-Oct-16 13:30N 53°44' E 008°15'4 8.6
2017-Oct-16 13:00N 53°41' E 008°21'4 8.7
2017-Oct-16 12:30N 53°38' E 008°27'4 8.3
2017-Oct-16 12:00N 53°35' E 008°31'2 4.3
2017-Oct-16 11:31N 53°33' E 008°34'0 0.2
2017-Oct-16 11:00N 53°34' E 008°34'1 1.7
2017-Oct-16 10:28N 53°33' E 008°34'0 0.0
2017-Oct-16 09:58N 53°33' E 008°34'0 0.0
2017-Oct-16 09:25N 53°33' E 008°34'0 0.0
2017-Oct-16 08:58N 53°33' E 008°34'0 0.0
2017-Oct-16 08:28N 53°33' E 008°34'0 0.0
2017-Oct-16 07:58N 53°33' E 008°34'0 0.0
2017-Oct-16 07:28N 53°33' E 008°34'0 0.0
2017-Oct-16 06:58N 53°33' E 008°34'0 0.0
2017-Oct-16 06:28N 53°33' E 008°34'0 0.0
2017-Oct-16 05:58N 53°33' E 008°34'0 0.0
2017-Oct-16 05:28N 53°33' E 008°34'0 0.0
2017-Oct-16 04:58N 53°33' E 008°34'0 0.0
2017-Oct-16 04:28N 53°33' E 008°34'0 0.0
2017-Oct-16 03:58N 53°33' E 008°34'0 0.0
2017-Oct-16 03:25N 53°33' E 008°34'0 0.0
2017-Oct-16 02:58N 53°33' E 008°34'0 0.0
2017-Oct-16 02:28N 53°33' E 008°34'0 0.0
2017-Oct-16 01:58N 53°33' E 008°34'0 0.0
2017-Oct-16 01:28N 53°33' E 008°34'0 0.0
2017-Oct-16 00:58N 53°33' E 008°34'0 0.0
2017-Oct-16 00:28N 53°33' E 008°34'0 0.0
2017-Oct-15 23:58N 53°33' E 008°34'0 0.0
2017-Oct-15 23:28N 53°33' E 008°34'0 0.0
2017-Oct-15 22:58N 53°33' E 008°34'0 0.0
2017-Oct-15 22:28N 53°33' E 008°34'0 0.0
2017-Oct-15 21:58N 53°33' E 008°34'0 0.0
2017-Oct-15 21:28N 53°33' E 008°34'0 0.0
2017-Oct-15 20:58N 53°33' E 008°34'0 0.0
2017-Oct-15 20:28N 53°33' E 008°34'0 0.0
2017-Oct-15 19:58N 53°33' E 008°34'0 0.0
2017-Oct-15 19:25N 53°33' E 008°34'0 0.0
2017-Oct-15 18:58N 53°33' E 008°34'0 0.0
2017-Oct-15 18:28N 53°33' E 008°34'0 0.0
2017-Oct-15 17:58N 53°33' E 008°34'0 0.0
2017-Oct-15 17:28N 53°33' E 008°34'0 0.0
2017-Oct-15 16:58N 53°33' E 008°34'0 0.0
2017-Oct-15 16:28N 53°33' E 008°34'0 0.0
2017-Oct-15 15:58N 53°33' E 008°34'0 0.1
2017-Oct-15 15:30N 53°33' E 008°34'1 1.4
2017-Oct-15 15:00N 53°33' E 008°34'0 0.1
2017-Oct-15 14:00N 53°33' E 008°34'1 1.7
2017-Oct-15 13:30N 53°33' E 008°34'0 0.0
2017-Oct-15 13:00N 53°33' E 008°34'2 3.7
2017-Oct-15 12:30N 53°34' E 008°32'2 4.9
2017-Oct-15 12:01N 53°36' E 008°30'3 6.9
2017-Oct-15 11:30N 53°38' E 008°26'3 6.5
2017-Oct-15 11:00N 53°41' E 008°22'3 6.2
2017-Oct-15 10:30N 53°43' E 008°18'1 2.4
2017-Oct-15 10:00N 53°44' E 008°16'3 6.0
2017-Oct-15 09:30N 53°42' E 008°20'3 6.3
2017-Oct-15 09:00N 53°39' E 008°24'4 7.8
2017-Oct-15 08:30N 53°37' E 008°29'4 7.1
2017-Oct-15 08:00N 53°34' E 008°32'2 3.2
2017-Oct-15 07:30N 53°33' E 008°34'0 0.3
2017-Oct-15 06:59N 53°33' E 008°34'0 0.0
2017-Oct-15 06:29N 53°33' E 008°34'0 0.0
2017-Oct-15 05:59N 53°33' E 008°34'0 0.0
2017-Oct-15 05:29N 53°33' E 008°34'0 0.0
2017-Oct-15 04:59N 53°33' E 008°34'0 0.0
2017-Oct-15 04:29N 53°33' E 008°34'0 0.0
2017-Oct-15 03:59N 53°33' E 008°34'0 0.0
2017-Oct-15 03:29N 53°33' E 008°34'0 0.0
2017-Oct-15 02:59N 53°33' E 008°34'0 0.0
2017-Oct-15 02:29N 53°33' E 008°34'0 0.0
2017-Oct-15 01:59N 53°33' E 008°34'0 0.0
2017-Oct-15 01:29N 53°33' E 008°34'0 0.0
2017-Oct-15 00:59N 53°33' E 008°34'0 0.0
2017-Oct-15 00:29N 53°33' E 008°34'0 0.0
2017-Oct-14 23:59N 53°33' E 008°34'0 0.0
2017-Oct-14 23:29N 53°33' E 008°34'0 0.0
2017-Oct-14 22:59N 53°33' E 008°34'0 0.0
2017-Oct-14 22:29N 53°33' E 008°34'0 0.0
2017-Oct-14 21:59N 53°33' E 008°34'0 0.0
2017-Oct-14 21:29N 53°33' E 008°34'0 0.0
2017-Oct-14 20:59N 53°33' E 008°34'0 0.0
2017-Oct-14 20:29N 53°33' E 008°34'0 0.0
2017-Oct-14 19:59N 53°33' E 008°34'0 0.0
2017-Oct-14 19:29N 53°33' E 008°34'0 0.0
2017-Oct-14 18:59N 53°33' E 008°34'0 0.0
2017-Oct-14 18:29N 53°33' E 008°34'0 0.0
2017-Oct-14 17:59N 53°33' E 008°34'0 0.0
2017-Oct-14 17:29N 53°33' E 008°34'0 0.0
2017-Oct-14 16:59N 53°33' E 008°34'0 0.1
2017-Oct-14 16:29N 53°33' E 008°34'0 0.0
2017-Oct-14 16:00N 53°33' E 008°34'2 3.4
2017-Oct-14 15:30N 53°34' E 008°32'3 7.0
2017-Oct-14 15:00N 53°37' E 008°29'4 7.7
2017-Oct-14 14:30N 53°39' E 008°24'4 7.8
2017-Oct-14 14:00N 53°42' E 008°19'3 6.3
2017-Oct-14 13:30N 53°44' E 008°15'3 5.1
2017-Oct-14 13:00N 53°46' E 008°12'3 5.9
2017-Oct-14 12:30N 53°44' E 008°16'3 6.7
2017-Oct-14 12:00N 53°42' E 008°20'4 7.2
2017-Oct-14 11:30N 53°39' E 008°24'3 5.9
2017-Oct-14 11:00N 53°37' E 008°28'4 7.7
2017-Oct-14 10:30N 53°34' E 008°32'2 3.5
2017-Oct-14 09:57N 53°33' E 008°34'0 0.0
2017-Oct-14 09:30N 53°33' E 008°34'0 0.0
2017-Oct-14 09:00N 53°33' E 008°34'0 0.0
2017-Oct-14 08:31N 53°33' E 008°34'1 1.0
2017-Oct-14 08:01N 53°33' E 008°34'0 1.0
2017-Oct-14 07:30N 53°34' E 008°34'0 0.9
2017-Oct-14 07:00N 53°33' E 008°34'0 0.8
2017-Oct-14 06:29N 53°33' E 008°34'0 0.0
2017-Oct-14 05:59N 53°33' E 008°34'0 0.0
2017-Oct-14 05:29N 53°33' E 008°34'0 0.0
2017-Oct-14 04:59N 53°33' E 008°34'0 0.0
2017-Oct-14 04:29N 53°33' E 008°34'0 0.0
2017-Oct-14 03:59N 53°33' E 008°34'0 0.0
2017-Oct-14 03:29N 53°33' E 008°34'0 0.0
2017-Oct-14 02:59N 53°33' E 008°34'0 0.0
2017-Oct-14 02:29N 53°33' E 008°34'0 0.0
2017-Oct-14 01:59N 53°33' E 008°34'0 0.0
2017-Oct-14 01:29N 53°33' E 008°34'0 0.0
2017-Oct-14 00:59N 53°33' E 008°34'0 0.0
2017-Oct-14 00:29N 53°33' E 008°34'0 0.0
2017-Oct-13 23:59N 53°33' E 008°34'0 0.0
2017-Oct-13 23:29N 53°33' E 008°34'0 0.0
2017-Oct-13 22:59N 53°33' E 008°34'0 0.0
2017-Oct-13 22:29N 53°33' E 008°34'0 0.0
2017-Oct-13 21:59N 53°33' E 008°34'0 0.0
2017-Oct-13 21:29N 53°33' E 008°34'0 0.0
2017-Oct-13 20:59N 53°33' E 008°34'0 0.0
2017-Oct-13 20:29N 53°33' E 008°34'0 0.0
2017-Oct-13 19:59N 53°33' E 008°34'0 0.0
2017-Oct-13 19:29N 53°33' E 008°34'0 0.0
2017-Oct-13 18:59N 53°33' E 008°34'0 0.0
2017-Oct-13 18:29N 53°33' E 008°34'0 0.0
2017-Oct-13 17:59N 53°33' E 008°34'0 0.0
2017-Oct-13 17:29N 53°33' E 008°34'0 0.0
2017-Oct-13 16:59N 53°33' E 008°34'0 0.0
2017-Oct-13 16:29N 53°33' E 008°34'0 0.0
2017-Oct-13 15:59N 53°33' E 008°34'0 0.0
2017-Oct-13 15:29N 53°33' E 008°34'0 0.0
2017-Oct-13 14:59N 53°33' E 008°34'0 0.0
2017-Oct-13 14:29N 53°33' E 008°34'0 0.0
2017-Oct-13 13:59N 53°33' E 008°34'0 0.0
2017-Oct-13 13:29N 53°33' E 008°34'0 0.0
2017-Oct-13 12:59N 53°33' E 008°34'0 0.0
2017-Oct-13 12:29N 53°33' E 008°34'0 0.0
2017-Oct-13 11:59N 53°33' E 008°34'0 0.0
2017-Oct-13 11:29N 53°33' E 008°34'0 0.0
2017-Oct-13 10:59N 53°33' E 008°34'0 0.0
2017-Oct-13 10:29N 53°33' E 008°34'0 0.0
2017-Oct-13 09:59N 53°33' E 008°34'0 0.0
2017-Oct-13 09:29N 53°33' E 008°34'0 0.0
2017-Oct-13 08:59N 53°33' E 008°34'0 0.0
2017-Oct-13 08:29N 53°33' E 008°34'0 0.0
2017-Oct-13 07:59N 53°33' E 008°34'0 0.0
2017-Oct-13 07:29N 53°33' E 008°34'0 0.0
2017-Oct-13 06:59N 53°33' E 008°34'0 0.0
2017-Oct-13 06:29N 53°33' E 008°34'0 0.0
2017-Oct-13 05:59N 53°33' E 008°34'0 0.0
2017-Oct-13 05:29N 53°33' E 008°34'0 0.0
2017-Oct-13 04:56N 53°33' E 008°34'0 0.0
2017-Oct-13 04:26N 53°33' E 008°34'0 0.0
2017-Oct-13 03:59N 53°33' E 008°34'0 0.0
2017-Oct-13 03:29N 53°33' E 008°34'0 0.0
2017-Oct-13 02:59N 53°33' E 008°34'0 0.0
2017-Oct-13 02:29N 53°33' E 008°34'0 0.0
2017-Oct-13 01:59N 53°33' E 008°34'0 0.0
2017-Oct-13 01:29N 53°33' E 008°34'0 0.0
2017-Oct-13 00:59N 53°33' E 008°34'0 0.0
2017-Oct-13 00:29N 53°33' E 008°34'0 0.0
2017-Oct-12 23:59N 53°33' E 008°34'0 0.0
2017-Oct-12 23:29N 53°33' E 008°34'0 0.0
2017-Oct-12 22:59N 53°33' E 008°34'0 0.0
2017-Oct-12 22:29N 53°33' E 008°34'0 0.0
2017-Oct-12 21:59N 53°33' E 008°34'0 0.0
2017-Oct-12 21:29N 53°33' E 008°34'0 0.0
2017-Oct-12 20:59N 53°33' E 008°34'0 0.0
2017-Oct-12 20:29N 53°33' E 008°34'0 0.0
2017-Oct-12 19:59N 53°33' E 008°34'0 0.0
2017-Oct-12 19:29N 53°33' E 008°34'  

Dump ship's entire track history